createdAt,value
2022-12-19T00:00:05.210Z,1011
2022-12-19T00:03:05.796Z,1011
2022-12-19T00:06:05.178Z,1011
2022-12-19T00:09:05.116Z,1011
2022-12-19T00:12:05.125Z,1011
2022-12-19T00:15:06.382Z,1011
2022-12-19T00:18:05.244Z,1011
2022-12-19T00:21:05.162Z,1012
2022-12-19T00:24:05.230Z,1012
2022-12-19T00:27:06.568Z,1012
2022-12-19T00:30:05.144Z,1012
2022-12-19T00:33:05.069Z,1012
2022-12-19T00:36:05.154Z,1011
2022-12-19T00:39:10.476Z,1011
2022-12-19T00:42:05.129Z,1011
2022-12-19T00:45:05.131Z,1011
2022-12-19T00:48:05.165Z,1011
2022-12-19T00:51:05.171Z,1011
2022-12-19T00:54:09.613Z,1011
2022-12-19T00:57:05.118Z,1011
2022-12-19T01:00:05.172Z,1011
2022-12-19T01:03:07.990Z,1011
2022-12-19T01:06:05.552Z,1011
2022-12-19T01:09:05.156Z,1011
2022-12-19T01:12:05.175Z,1011
2022-12-19T01:15:09.753Z,1011
2022-12-19T01:18:05.163Z,1011
2022-12-19T01:21:05.230Z,1011
2022-12-19T01:24:05.144Z,1011
2022-12-19T01:27:05.166Z,1011
2022-12-19T01:30:05.164Z,1011
2022-12-19T01:33:05.184Z,1011
2022-12-19T01:36:05.114Z,1011
2022-12-19T01:39:05.087Z,1011
2022-12-19T01:42:05.221Z,1011
2022-12-19T01:45:05.163Z,1011
2022-12-19T01:48:05.124Z,1011
2022-12-19T01:51:07.201Z,1011
2022-12-19T01:54:05.129Z,1011
2022-12-19T01:57:05.096Z,1011
2022-12-19T02:00:05.219Z,1011
2022-12-19T02:03:08.774Z,1011
2022-12-19T02:06:05.145Z,1011
2022-12-19T02:09:05.094Z,1011
2022-12-19T02:12:05.273Z,1011
2022-12-19T02:15:08.158Z,1011
2022-12-19T02:18:05.140Z,1011
2022-12-19T02:21:05.179Z,1011
2022-12-19T02:24:05.112Z,1011
2022-12-19T02:27:05.128Z,1011
2022-12-19T02:30:05.155Z,1011
2022-12-19T02:33:05.145Z,1011
2022-12-19T02:36:05.214Z,1011
2022-12-19T02:39:05.129Z,1010
2022-12-19T02:42:05.225Z,1010
2022-12-19T02:45:05.182Z,1010
2022-12-19T02:48:19.206Z,1010
2022-12-19T02:51:05.164Z,1010
2022-12-19T02:54:05.146Z,1010
2022-12-19T02:57:05.129Z,1010
2022-12-19T03:00:07.279Z,1010
2022-12-19T03:03:06.648Z,1010
2022-12-19T03:06:05.160Z,1010
2022-12-19T03:09:05.197Z,1011
2022-12-19T03:12:05.182Z,1011
2022-12-19T03:15:05.297Z,1011
2022-12-19T03:18:05.515Z,1010
2022-12-19T03:21:05.196Z,1010
2022-12-19T03:24:05.176Z,1010
2022-12-19T03:27:05.222Z,1010
2022-12-19T03:30:05.242Z,1010
2022-12-19T03:33:05.162Z,1010
2022-12-19T03:36:05.187Z,1010
2022-12-19T03:39:05.125Z,1010
2022-12-19T03:42:05.487Z,1010
2022-12-19T03:45:05.249Z,1009
2022-12-19T03:48:05.197Z,1009
2022-12-19T03:51:05.192Z,1009
2022-12-19T03:54:05.257Z,1010
2022-12-19T03:57:05.147Z,1010
2022-12-19T04:00:05.258Z,1010
2022-12-19T04:03:05.427Z,1010
2022-12-19T04:06:05.209Z,1009
2022-12-19T04:09:05.183Z,1009
2022-12-19T04:12:05.205Z,1009
2022-12-19T04:15:05.191Z,1009
2022-12-19T04:18:05.176Z,1009
2022-12-19T04:21:05.160Z,1009
2022-12-19T04:24:05.175Z,1009
2022-12-19T04:27:05.191Z,1009
2022-12-19T04:30:05.194Z,1009
2022-12-19T04:33:05.259Z,1009
2022-12-19T04:36:05.217Z,1009
2022-12-19T04:39:05.158Z,1009
2022-12-19T04:42:05.173Z,1009
2022-12-19T04:45:06.309Z,1009
2022-12-19T04:48:05.183Z,1009
2022-12-19T04:51:05.249Z,1009
2022-12-19T04:54:05.148Z,1009
2022-12-19T04:57:05.126Z,1009
2022-12-19T05:00:05.474Z,1009
2022-12-19T05:03:05.941Z,1009
2022-12-19T05:06:05.209Z,1009
2022-12-19T05:09:05.287Z,1009
2022-12-19T05:12:05.562Z,1009
2022-12-19T05:15:05.254Z,1009
2022-12-19T05:18:05.209Z,1009
2022-12-19T05:21:05.155Z,1009
2022-12-19T05:24:05.175Z,1009
2022-12-19T05:27:05.434Z,1009
2022-12-19T05:30:05.235Z,1008
2022-12-19T05:33:05.185Z,1008
2022-12-19T05:36:05.186Z,1008
2022-12-19T05:39:05.224Z,1008
2022-12-19T05:42:08.436Z,1008
2022-12-19T05:45:05.260Z,1008
2022-12-19T05:48:06.171Z,1008
2022-12-19T05:51:05.299Z,1008
2022-12-19T05:54:06.018Z,1008
2022-12-19T05:57:05.325Z,1008
2022-12-19T06:00:05.220Z,1008
2022-12-19T06:03:05.745Z,1009
2022-12-19T06:06:05.244Z,1009
2022-12-19T06:09:05.169Z,1009
2022-12-19T06:12:05.237Z,1009
2022-12-19T06:15:05.253Z,1009
2022-12-19T06:18:05.148Z,1009
2022-12-19T06:21:05.189Z,1009
2022-12-19T06:24:05.196Z,1009
2022-12-19T06:27:05.237Z,1009
2022-12-19T06:30:05.209Z,1009
2022-12-19T06:33:05.168Z,1009
2022-12-19T06:36:05.148Z,1009
2022-12-19T06:39:05.254Z,1008
2022-12-19T06:42:05.209Z,1008
2022-12-19T06:45:05.256Z,1008
2022-12-19T06:48:05.244Z,1008
2022-12-19T06:51:05.194Z,1008
2022-12-19T06:54:05.200Z,1008
2022-12-19T06:57:05.188Z,1008
2022-12-19T07:00:05.292Z,1008
2022-12-19T07:03:05.651Z,1008
2022-12-19T07:06:05.166Z,1008
2022-12-19T07:09:05.167Z,1008
2022-12-19T07:12:05.267Z,1008
2022-12-19T07:15:05.307Z,1008
2022-12-19T07:18:05.205Z,1008
2022-12-19T07:21:05.149Z,1008
2022-12-19T07:24:05.238Z,1008
2022-12-19T07:27:05.184Z,1008
2022-12-19T07:30:05.352Z,1008
2022-12-19T07:33:05.261Z,1008
2022-12-19T07:36:05.233Z,1008
2022-12-19T07:39:05.778Z,1008
2022-12-19T07:42:05.225Z,1008
2022-12-19T07:45:05.321Z,1008
2022-12-19T07:48:05.168Z,1008
2022-12-19T07:51:05.253Z,1008
2022-12-19T07:54:06.339Z,1008
2022-12-19T07:57:05.274Z,1008
2022-12-19T08:00:05.585Z,1008
2022-12-19T08:03:05.449Z,1007
2022-12-19T08:06:05.273Z,1007
2022-12-19T08:09:05.332Z,1007
2022-12-19T08:12:05.284Z,1007
2022-12-19T08:15:05.324Z,1007
2022-12-19T08:18:05.431Z,1007
2022-12-19T08:21:05.289Z,1007
2022-12-19T08:24:05.277Z,1007
2022-12-19T08:27:05.294Z,1007
2022-12-19T08:30:05.309Z,1007
2022-12-19T08:33:05.217Z,1007
2022-12-19T08:36:05.187Z,1007
2022-12-19T08:39:05.183Z,1007
2022-12-19T08:42:05.195Z,1008
2022-12-19T08:45:05.227Z,1008
2022-12-19T08:48:05.162Z,1008
2022-12-19T08:51:05.228Z,1008
2022-12-19T08:54:10.835Z,1008
2022-12-19T08:57:05.244Z,1008
2022-12-19T09:00:07.064Z,1008
2022-12-19T09:03:07.795Z,1007
2022-12-19T09:06:21.561Z,1007
2022-12-19T09:09:05.500Z,1007
2022-12-19T09:12:05.300Z,1007
2022-12-19T09:15:05.392Z,1007
2022-12-19T09:18:05.286Z,1007
2022-12-19T09:21:10.083Z,1007
2022-12-19T09:24:12.599Z,1007
2022-12-19T09:27:05.237Z,1007
2022-12-19T09:30:05.245Z,1007
2022-12-19T09:33:05.242Z,1007
2022-12-19T09:36:05.253Z,1007
2022-12-19T09:39:05.408Z,1007
2022-12-19T09:42:05.233Z,1007
2022-12-19T09:45:05.491Z,1007
2022-12-19T09:48:07.875Z,1007
2022-12-19T09:51:15.679Z,1007
2022-12-19T09:54:05.196Z,1007
2022-12-19T09:57:05.269Z,1007
2022-12-19T10:00:05.414Z,1007
2022-12-19T10:03:05.884Z,1007
2022-12-19T10:15:05.232Z,1006
2022-12-19T10:18:05.419Z,1006
2022-12-19T10:21:05.265Z,1006
2022-12-19T10:24:05.228Z,1006
2022-12-19T10:27:05.311Z,1006
2022-12-19T10:30:05.458Z,1006
2022-12-19T10:33:05.240Z,1006
2022-12-19T10:36:08.977Z,1006
2022-12-19T10:39:05.326Z,1006
2022-12-19T10:42:05.296Z,1006
2022-12-19T10:45:05.256Z,1006
2022-12-19T10:48:05.264Z,1006
2022-12-19T10:51:11.477Z,1007
2022-12-19T10:54:05.350Z,1006
2022-12-19T10:57:05.378Z,1006
2022-12-19T11:00:05.449Z,1006
2022-12-19T11:03:05.869Z,1006
2022-12-19T11:06:05.251Z,1006
2022-12-19T11:09:05.374Z,1006
2022-12-19T11:33:05.388Z,1006
2022-12-19T11:36:05.362Z,1006
2022-12-19T11:39:05.208Z,1006
2022-12-19T11:42:05.226Z,1005
2022-12-19T11:45:05.314Z,1005
2022-12-19T11:48:05.248Z,1006
2022-12-19T11:51:07.037Z,1006
2022-12-19T11:54:05.291Z,1006
2022-12-19T11:57:05.253Z,1006
2022-12-19T12:00:10.365Z,1006
2022-12-19T12:03:05.433Z,1005
2022-12-19T12:06:05.186Z,1005
2022-12-19T12:39:05.907Z,1005
2022-12-19T12:42:05.364Z,1006
2022-12-19T12:45:05.355Z,1006
2022-12-19T12:51:05.297Z,1006
2022-12-19T12:54:05.328Z,1006
2022-12-19T12:57:05.282Z,1006
2022-12-19T13:00:05.560Z,1006
2022-12-19T13:03:05.995Z,1006
2022-12-19T13:06:05.268Z,1006
2022-12-19T13:09:05.248Z,1006
2022-12-19T13:12:05.258Z,1006
2022-12-19T13:15:05.272Z,1006
2022-12-19T13:18:05.311Z,1006
2022-12-19T13:21:05.290Z,1005
2022-12-19T13:24:05.262Z,1005
2022-12-19T13:27:05.348Z,1005
2022-12-19T13:30:05.447Z,1005
2022-12-19T13:33:05.189Z,1005
2022-12-19T13:42:05.284Z,1005
2022-12-19T13:45:05.196Z,1005
2022-12-19T13:48:05.296Z,1005
2022-12-19T13:51:05.250Z,1005
2022-12-19T13:54:05.319Z,1005
2022-12-19T13:57:14.013Z,1005
2022-12-19T14:00:06.322Z,1005
2022-12-19T14:03:06.081Z,1005
2022-12-19T14:06:24.045Z,1005
2022-12-19T14:15:18.703Z,1005
2022-12-19T14:18:50.329Z,1005
2022-12-19T14:24:05.456Z,1005
2022-12-19T14:30:37.146Z,1005
2022-12-19T14:36:28.245Z,1006
2022-12-19T14:39:33.373Z,1006
2022-12-19T14:42:07.223Z,1006
2022-12-19T14:57:07.421Z,1005
2022-12-19T15:00:05.652Z,1005
2022-12-19T15:03:08.127Z,1005
2022-12-19T15:15:05.802Z,1005
2022-12-19T15:18:05.176Z,1005
2022-12-19T15:21:05.257Z,1005
2022-12-19T15:24:05.227Z,1005
2022-12-19T15:27:05.184Z,1005
2022-12-19T15:30:05.307Z,1004
2022-12-19T15:33:05.183Z,1004
2022-12-19T15:36:05.213Z,1004
2022-12-19T15:39:05.250Z,1004
2022-12-19T15:42:05.279Z,1004
2022-12-19T15:45:05.431Z,1004
2022-12-19T15:48:05.345Z,1004
2022-12-19T15:51:05.217Z,1004
2022-12-19T15:54:53.732Z,1004
2022-12-19T15:57:05.257Z,1004
2022-12-19T16:00:05.298Z,1004
2022-12-19T16:03:31.249Z,1004
2022-12-19T16:06:05.137Z,1004
2022-12-19T16:09:05.191Z,1004
2022-12-19T16:12:05.228Z,1004
2022-12-19T16:15:05.212Z,1004
2022-12-19T16:18:05.222Z,1004
2022-12-19T16:21:05.201Z,1004
2022-12-19T16:24:05.228Z,1004
2022-12-19T16:27:05.246Z,1005
2022-12-19T16:30:05.264Z,1005
2022-12-19T16:33:06.028Z,1005
2022-12-19T16:36:11.405Z,1005
2022-12-19T16:39:05.180Z,1005
2022-12-19T16:42:05.224Z,1005
2022-12-19T16:45:05.365Z,1005
2022-12-19T16:48:05.168Z,1005
2022-12-19T16:51:05.141Z,1005
2022-12-19T16:54:05.490Z,1005
2022-12-19T16:57:05.255Z,1005
2022-12-19T17:00:05.277Z,1005
2022-12-19T17:03:05.884Z,1005
2022-12-19T17:06:05.283Z,1005
2022-12-19T17:09:05.202Z,1005
2022-12-19T17:12:05.167Z,1005
2022-12-19T17:15:05.248Z,1005
2022-12-19T17:18:05.205Z,1005
2022-12-19T17:21:05.233Z,1005
2022-12-19T17:24:05.197Z,1005
2022-12-19T17:27:05.214Z,1005
2022-12-19T17:30:05.280Z,1005
2022-12-19T17:33:05.156Z,1005
2022-12-19T17:36:05.219Z,1005
2022-12-19T17:39:05.272Z,1005
2022-12-19T17:42:05.190Z,1005
2022-12-19T17:45:05.164Z,1005
2022-12-19T17:48:07.816Z,1005
2022-12-19T17:51:05.134Z,1005
2022-12-19T17:54:06.134Z,1005
2022-12-19T17:57:05.228Z,1005
2022-12-19T18:00:05.244Z,1005
2022-12-19T18:03:06.049Z,1005
2022-12-19T18:06:12.363Z,1005
2022-12-19T18:09:05.166Z,1005
2022-12-19T18:12:05.287Z,1005
2022-12-19T18:15:05.183Z,1005
2022-12-19T18:18:05.174Z,1005
2022-12-19T18:21:05.229Z,1005
2022-12-19T18:24:05.162Z,1005
2022-12-19T18:27:05.271Z,1005
2022-12-19T18:30:05.334Z,1005
2022-12-19T18:33:05.236Z,1005
2022-12-19T18:36:05.248Z,1005
2022-12-19T18:39:05.154Z,1005
2022-12-19T18:42:05.181Z,1005
2022-12-19T18:45:05.257Z,1005
2022-12-19T18:48:05.250Z,1005
2022-12-19T18:51:05.465Z,1005
2022-12-19T18:54:05.231Z,1005
2022-12-19T18:57:05.920Z,1005
2022-12-19T19:00:05.181Z,1005
2022-12-19T19:03:06.302Z,1005
2022-12-19T19:06:05.272Z,1005
2022-12-19T19:09:05.146Z,1005
2022-12-19T19:12:05.201Z,1005
2022-12-19T19:15:05.213Z,1005
2022-12-19T19:18:05.270Z,1005
2022-12-19T19:21:06.166Z,1005
2022-12-19T19:24:05.186Z,1005
2022-12-19T19:27:05.238Z,1005
2022-12-19T19:30:05.228Z,1005
2022-12-19T19:33:05.253Z,1005
2022-12-19T19:36:16.170Z,1005
2022-12-19T19:39:05.271Z,1004
2022-12-19T19:42:05.263Z,1005
2022-12-19T19:45:05.155Z,1005
2022-12-19T19:48:05.191Z,1005
2022-12-19T19:51:05.177Z,1005
2022-12-19T19:54:05.421Z,1005
2022-12-19T19:57:05.103Z,1005
2022-12-19T20:00:05.294Z,1005
2022-12-19T20:03:23.148Z,1004
2022-12-19T20:06:05.535Z,1004
2022-12-19T20:09:05.224Z,1005
2022-12-19T20:12:05.251Z,1005
2022-12-19T20:15:05.218Z,1005
2022-12-19T20:18:05.208Z,1004
2022-12-19T20:21:12.920Z,1004
2022-12-19T20:24:05.178Z,1004
2022-12-19T20:27:05.216Z,1004
2022-12-19T20:30:05.187Z,1004
2022-12-19T20:33:05.180Z,1004
2022-12-19T20:36:05.181Z,1004
2022-12-19T20:39:05.155Z,1004
2022-12-19T20:42:05.179Z,1004
2022-12-19T20:45:05.133Z,1004
2022-12-19T20:48:05.150Z,1004
2022-12-19T20:51:05.175Z,1004
2022-12-19T20:54:05.190Z,1004
2022-12-19T20:57:05.193Z,1004
2022-12-19T21:00:05.298Z,1004
2022-12-19T21:03:34.465Z,1004
2022-12-19T21:06:05.240Z,1005
2022-12-19T21:09:05.194Z,1005
2022-12-19T21:12:05.244Z,1005
2022-12-19T21:15:05.225Z,1005
2022-12-19T21:18:05.217Z,1005
2022-12-19T21:21:05.196Z,1005
2022-12-19T21:24:05.252Z,1005
2022-12-19T21:27:05.404Z,1005
2022-12-19T21:30:05.203Z,1005
2022-12-19T21:33:05.205Z,1004
2022-12-19T21:36:05.179Z,1004
2022-12-19T21:39:05.341Z,1004
2022-12-19T21:42:05.134Z,1004
2022-12-19T21:45:05.491Z,1004
2022-12-19T21:48:05.185Z,1004
2022-12-19T21:51:05.223Z,1004
2022-12-19T21:54:05.207Z,1004
2022-12-19T21:57:05.199Z,1005
2022-12-19T22:00:05.396Z,1004
2022-12-19T22:03:20.470Z,1004
2022-12-19T22:06:05.200Z,1004
2022-12-19T22:09:05.190Z,1004
2022-12-19T22:12:05.256Z,1004
2022-12-19T22:15:05.185Z,1004
2022-12-19T22:18:05.149Z,1004
2022-12-19T22:21:05.222Z,1004
2022-12-19T22:24:05.170Z,1004
2022-12-19T22:27:05.249Z,1004
2022-12-19T22:30:15.542Z,1004
2022-12-19T22:33:05.190Z,1004
2022-12-19T22:36:05.200Z,1004
2022-12-19T22:39:05.241Z,1004
2022-12-19T22:42:05.202Z,1004
2022-12-19T22:45:05.433Z,1004
2022-12-19T22:48:05.208Z,1004
2022-12-19T22:51:05.194Z,1005
2022-12-19T22:54:05.214Z,1005
2022-12-19T22:57:05.203Z,1005
2022-12-19T23:00:05.594Z,1005
2022-12-19T23:03:06.020Z,1004
2022-12-19T23:06:05.174Z,1004
2022-12-19T23:09:05.171Z,1004
2022-12-19T23:12:05.205Z,1004
2022-12-19T23:15:05.147Z,1004
2022-12-19T23:18:05.222Z,1004
2022-12-19T23:21:11.662Z,1004
2022-12-19T23:24:05.188Z,1004
2022-12-19T23:27:05.174Z,1004
2022-12-19T23:30:05.185Z,1004
2022-12-19T23:33:05.189Z,1004
2022-12-19T23:36:05.225Z,1004
2022-12-19T23:39:05.214Z,1004
2022-12-19T23:42:05.488Z,1004
2022-12-19T23:45:05.169Z,1004
2022-12-19T23:48:05.184Z,1004
2022-12-19T23:51:05.260Z,1004
2022-12-19T23:54:05.274Z,1004
2022-12-19T23:57:05.174Z,1004
